sensor_id;sensor_type;location;lat;lon;timestamp;pressure;altitude;pressure_sealevel;temperature;humidity
44131;BME280;29792;48.726;9.248;2023-12-20T00:00:15;96909.28;;;6.16;100.00
44131;BME280;29792;48.726;9.248;2023-12-20T00:02:40;96901.44;;;6.19;100.00
44131;BME280;29792;48.726;9.248;2023-12-20T00:05:05;96890.28;;;6.21;100.00
44131;BME280;29792;48.726;9.248;2023-12-20T00:07:31;96875.72;;;6.23;100.00
44131;BME280;29792;48.726;9.248;2023-12-20T00:09:56;96880.91;;;6.22;100.00
44131;BME280;29792;48.726;9.248;2023-12-20T00:12:22;96886.91;;;6.21;100.00
44131;BME280;29792;48.726;9.248;2023-12-20T00:14:47;96880.00;;;6.23;100.00
44131;BME280;29792;48.726;9.248;2023-12-20T00:17:13;96884.19;;;6.24;100.00
44131;BME280;29792;48.726;9.248;2023-12-20T00:19:38;96878.16;;;6.25;100.00
44131;BME280;29792;48.726;9.248;2023-12-20T00:22:03;96870.53;;;6.25;100.00
44131;BME280;29792;48.726;9.248;2023-12-20T00:24:29;96860.97;;;6.28;100.00
44131;BME280;29792;48.726;9.248;2023-12-20T00:26:54;96860.78;;;6.31;100.00
44131;BME280;29792;48.726;9.248;2023-12-20T00:29:19;96855.56;;;6.33;100.00
44131;BME280;29792;48.726;9.248;2023-12-20T00:31:44;96863.00;;;6.36;100.00
44131;BME280;29792;48.726;9.248;2023-12-20T00:34:10;96858.56;;;6.39;100.00
44131;BME280;29792;48.726;9.248;2023-12-20T00:36:35;96859.25;;;6.41;100.00
44131;BME280;29792;48.726;9.248;2023-12-20T00:39:00;96856.69;;;6.41;100.00
44131;BME280;29792;48.726;9.248;2023-12-20T00:41:26;96858.56;;;6.39;100.00
44131;BME280;29792;48.726;9.248;2023-12-20T00:43:51;96850.94;;;6.39;100.00
44131;BME280;29792;48.726;9.248;2023-12-20T00:46:16;96858.66;;;6.38;100.00
44131;BME280;29792;48.726;9.248;2023-12-20T00:48:41;96858.75;;;6.36;100.00
44131;BME280;29792;48.726;9.248;2023-12-20T00:51:07;96851.22;;;6.35;100.00
44131;BME280;29792;48.726;9.248;2023-12-20T00:53:32;96848.75;;;6.33;100.00
44131;BME280;29792;48.726;9.248;2023-12-20T00:55:58;96844.81;;;6.29;100.00
44131;BME280;29792;48.726;9.248;2023-12-20T00:58:23;96838.19;;;6.27;100.00
44131;BME280;29792;48.726;9.248;2023-12-20T01:00:49;96837.47;;;6.25;100.00
44131;BME280;29792;48.726;9.248;2023-12-20T01:03:14;96835.94;;;6.22;100.00
44131;BME280;29792;48.726;9.248;2023-12-20T01:05:40;96836.06;;;6.21;100.00
44131;BME280;29792;48.726;9.248;2023-12-20T01:08:05;96836.13;;;6.19;100.00
44131;BME280;29792;48.726;9.248;2023-12-20T01:10:31;96841.44;;;6.16;100.00
44131;BME280;29792;48.726;9.248;2023-12-20T01:12:57;96848.34;;;6.14;100.00
44131;BME280;29792;48.726;9.248;2023-12-20T01:15:22;96855.34;;;6.10;100.00
44131;BME280;29792;48.726;9.248;2023-12-20T01:17:48;96848.03;;;6.06;100.00
44131;BME280;29792;48.726;9.248;2023-12-20T01:20:14;96848.22;;;6.03;100.00
44131;BME280;29792;48.726;9.248;2023-12-20T01:22:39;96864.38;;;6.02;100.00
44131;BME280;29792;48.726;9.248;2023-12-20T01:25:05;96851.88;;;5.99;100.00
44131;BME280;29792;48.726;9.248;2023-12-20T01:27:30;96853.81;;;5.95;100.00
44131;BME280;29792;48.726;9.248;2023-12-20T01:29:56;96847.31;;;5.91;100.00
44131;BME280;29792;48.726;9.248;2023-12-20T01:32:22;96860.19;;;5.88;100.00
44131;BME280;29792;48.726;9.248;2023-12-20T01:34:47;96859.38;;;5.88;100.00
44131;BME280;29792;48.726;9.248;2023-12-20T01:37:13;96861.38;;;5.83;100.00
44131;BME280;29792;48.726;9.248;2023-12-20T01:39:39;96860.66;;;5.81;100.00
44131;BME280;29792;48.726;9.248;2023-12-20T01:42:04;96858.38;;;5.76;100.00
44131;BME280;29792;48.726;9.248;2023-12-20T01:44:30;96857.78;;;5.72;100.00
44131;BME280;29792;48.726;9.248;2023-12-20T01:46:55;96862.22;;;5.69;100.00
44131;BME280;29792;48.726;9.248;2023-12-20T01:49:21;96865.50;;;5.71;100.00
44131;BME280;29792;48.726;9.248;2023-12-20T01:51:46;96858.06;;;5.68;100.00
44131;BME280;29792;48.726;9.248;2023-12-20T01:54:12;96862.34;;;5.67;100.00
44131;BME280;29792;48.726;9.248;2023-12-20T01:56:38;96864.06;;;5.67;100.00
44131;BME280;29792;48.726;9.248;2023-12-20T01:59:04;96860.81;;;5.65;100.00
44131;BME280;29792;48.726;9.248;2023-12-20T02:01:30;96858.25;;;5.65;100.00
44131;BME280;29792;48.726;9.248;2023-12-20T02:03:56;96852.38;;;5.64;100.00
44131;BME280;29792;48.726;9.248;2023-12-20T02:06:23;96852.28;;;5.66;100.00
44131;BME280;29792;48.726;9.248;2023-12-20T02:08:50;96853.28;;;5.63;100.00
44131;BME280;29792;48.726;9.248;2023-12-20T02:11:15;96857.63;;;5.61;100.00
44131;BME280;29792;48.726;9.248;2023-12-20T02:13:41;96847.47;;;5.61;100.00
44131;BME280;29792;48.726;9.248;2023-12-20T02:16:06;96849.91;;;5.63;100.00
44131;BME280;29792;48.726;9.248;2023-12-20T02:18:32;96849.72;;;5.66;100.00
44131;BME280;29792;48.726;9.248;2023-12-20T02:20:58;96850.66;;;5.65;100.00
44131;BME280;29792;48.726;9.248;2023-12-20T02:23:23;96853.38;;;5.62;100.00
44131;BME280;29792;48.726;9.248;2023-12-20T02:25:48;96847.38;;;5.63;100.00
44131;BME280;29792;48.726;9.248;2023-12-20T02:28:13;96848.91;;;5.65;100.00
44131;BME280;29792;48.726;9.248;2023-12-20T02:30:39;96842.13;;;5.66;100.00
44131;BME280;29792;48.726;9.248;2023-12-20T02:33:08;96851.25;;;5.68;100.00
44131;BME280;29792;48.726;9.248;2023-12-20T02:35:35;96849.72;;;5.66;100.00
44131;BME280;29792;48.726;9.248;2023-12-20T02:38:00;96839.75;;;5.63;100.00
44131;BME280;29792;48.726;9.248;2023-12-20T02:40:26;96848.28;;;5.62;100.00
44131;BME280;29792;48.726;9.248;2023-12-20T02:42:51;96851.84;;;5.59;100.00
44131;BME280;29792;48.726;9.248;2023-12-20T02:45:16;96856.22;;;5.57;100.00
44131;BME280;29792;48.726;9.248;2023-12-20T02:47:41;96850.31;;;5.57;100.00
44131;BME280;29792;48.726;9.248;2023-12-20T02:50:07;96850.41;;;5.55;100.00
44131;BME280;29792;48.726;9.248;2023-12-20T02:52:32;96857.38;;;5.52;100.00
44131;BME280;29792;48.726;9.248;2023-12-20T02:54:57;96853.94;;;5.53;100.00
44131;BME280;29792;48.726;9.248;2023-12-20T02:57:23;96852.22;;;5.53;100.00
44131;BME280;29792;48.726;9.248;2023-12-20T02:59:48;96859.75;;;5.55;100.00
44131;BME280;29792;48.726;9.248;2023-12-20T03:02:13;96859.66;;;5.56;100.00
44131;BME280;29792;48.726;9.248;2023-12-20T03:04:39;96855.38;;;5.57;100.00
44131;BME280;29792;48.726;9.248;2023-12-20T03:07:04;96860.56;;;5.55;100.00
44131;BME280;29792;48.726;9.248;2023-12-20T03:09:29;96858.03;;;5.55;100.00
44131;BME280;29792;48.726;9.248;2023-12-20T03:11:54;96867.28;;;5.56;100.00
44131;BME280;29792;48.726;9.248;2023-12-20T03:14:19;96861.38;;;5.56;100.00
44131;BME280;29792;48.726;9.248;2023-12-20T03:16:51;96867.28;;;5.56;100.00
44131;BME280;29792;48.726;9.248;2023-12-20T03:19:17;96878.88;;;5.60;100.00
44131;BME280;29792;48.726;9.248;2023-12-20T03:21:43;96870.34;;;5.61;100.00
44131;BME280;29792;48.726;9.248;2023-12-20T03:24:09;96875.00;;;5.55;100.00
44131;BME280;29792;48.726;9.248;2023-12-20T03:26:34;96875.06;;;5.53;100.00
44131;BME280;29792;48.726;9.248;2023-12-20T03:28:59;96875.91;;;5.54;100.00
44131;BME280;29792;48.726;9.248;2023-12-20T03:31:25;96871.53;;;5.56;100.00
44131;BME280;29792;48.726;9.248;2023-12-20T03:33:50;96868.09;;;5.57;100.00
44131;BME280;29792;48.726;9.248;2023-12-20T03:36:17;96875.81;;;5.55;100.00
44131;BME280;29792;48.726;9.248;2023-12-20T03:38:42;96883.50;;;5.54;100.00
44131;BME280;29792;48.726;9.248;2023-12-20T03:41:07;96879.47;;;5.51;100.00
44131;BME280;29792;48.726;9.248;2023-12-20T03:43:33;96885.31;;;5.52;100.00
44131;BME280;29792;48.726;9.248;2023-12-20T03:45:58;96886.25;;;5.51;100.00
44131;BME280;29792;48.726;9.248;2023-12-20T03:48:25;96885.44;;;5.50;100.00
44131;BME280;29792;48.726;9.248;2023-12-20T03:50:50;96885.63;;;5.47;100.00
44131;BME280;29792;48.726;9.248;2023-12-20T03:53:15;96887.25;;;5.48;100.00
44131;BME280;29792;48.726;9.248;2023-12-20T03:55:41;96892.94;;;5.52;100.00
44131;BME280;29792;48.726;9.248;2023-12-20T03:58:06;96886.25;;;5.51;100.00
44131;BME280;29792;48.726;9.248;2023-12-20T04:00:31;96896.31;;;5.52;100.00
44131;BME280;29792;48.726;9.248;2023-12-20T04:02:56;96895.41;;;5.53;100.00
44131;BME280;29792;48.726;9.248;2023-12-20T04:05:21;96888.06;;;5.49;100.00
44131;BME280;29792;48.726;9.248;2023-12-20T04:07:47;96886.63;;;5.45;100.00
44131;BME280;29792;48.726;9.248;2023-12-20T04:10:12;96892.59;;;5.44;100.00
44131;BME280;29792;48.726;9.248;2023-12-20T04:12:37;96907.75;;;5.45;100.00
44131;BME280;29792;48.726;9.248;2023-12-20T04:15:03;96906.25;;;5.43;100.00
44131;BME280;29792;48.726;9.248;2023-12-20T04:17:34;96903.06;;;5.39;100.00
44131;BME280;29792;48.726;9.248;2023-12-20T04:19:59;96893.19;;;5.34;100.00
44131;BME280;29792;48.726;9.248;2023-12-20T04:22:24;96891.72;;;5.30;100.00
44131;BME280;29792;48.726;9.248;2023-12-20T04:24:49;96887.75;;;5.26;100.00
44131;BME280;29792;48.726;9.248;2023-12-20T04:27:15;96894.56;;;5.26;100.00
44131;BME280;29792;48.726;9.248;2023-12-20T04:29:40;96911.53;;;5.25;100.00
44131;BME280;29792;48.726;9.248;2023-12-20T04:32:05;96923.31;;;5.26;100.00
44131;BME280;29792;48.726;9.248;2023-12-20T04:34:31;96922.59;;;5.24;100.00
44131;BME280;29792;48.726;9.248;2023-12-20T04:36:56;96918.41;;;5.23;100.00
44131;BME280;29792;48.726;9.248;2023-12-20T04:39:21;96912.59;;;5.21;100.00
44131;BME280;29792;48.726;9.248;2023-12-20T04:41:46;96912.59;;;5.21;100.00
44131;BME280;29792;48.726;9.248;2023-12-20T04:44:13;96911.88;;;5.19;100.00
44131;BME280;29792;48.726;9.248;2023-12-20T04:46:38;96908.63;;;5.17;100.00
44131;BME280;29792;48.726;9.248;2023-12-20T04:49:03;96918.88;;;5.16;100.00
44131;BME280;29792;48.726;9.248;2023-12-20T04:51:29;96922.50;;;5.12;100.00
44131;BME280;29792;48.726;9.248;2023-12-20T04:53:54;96930.22;;;5.10;100.00
44131;BME280;29792;48.726;9.248;2023-12-20T04:56:19;96938.75;;;5.09;100.00
44131;BME280;29792;48.726;9.248;2023-12-20T04:58:45;96930.09;;;5.12;100.00
44131;BME280;29792;48.726;9.248;2023-12-20T05:01:10;96909.91;;;5.10;100.00
44131;BME280;29792;48.726;9.248;2023-12-20T05:03:35;96913.34;;;5.09;100.00
44131;BME280;29792;48.726;9.248;2023-12-20T05:06:01;96931.03;;;5.11;100.00
44131;BME280;29792;48.726;9.248;2023-12-20T05:08:26;96931.94;;;5.10;100.00
44131;BME280;29792;48.726;9.248;2023-12-20T05:10:54;96940.25;;;5.12;100.00
44131;BME280;29792;48.726;9.248;2023-12-20T05:13:19;96942.91;;;5.10;100.00
44131;BME280;29792;48.726;9.248;2023-12-20T05:15:44;96938.75;;;5.09;100.00
44131;BME280;29792;48.726;9.248;2023-12-20T05:18:10;96941.28;;;5.09;100.00
44131;BME280;29792;48.726;9.248;2023-12-20T05:20:35;96942.19;;;5.08;100.00
44131;BME280;29792;48.726;9.248;2023-12-20T05:23:00;96947.16;;;5.10;100.00
44131;BME280;29792;48.726;9.248;2023-12-20T05:25:25;96962.41;;;5.10;100.00
44131;BME280;29792;48.726;9.248;2023-12-20T05:27:51;96968.31;;;5.10;100.00
44131;BME280;29792;48.726;9.248;2023-12-20T05:30:16;96962.28;;;5.11;100.00
44131;BME280;29792;48.726;9.248;2023-12-20T05:32:41;96964.94;;;5.10;100.00
44131;BME280;29792;48.726;9.248;2023-12-20T05:35:07;96960.56;;;5.12;100.00
44131;BME280;29792;48.726;9.248;2023-12-20T05:37:32;96962.28;;;5.11;100.00
44131;BME280;29792;48.726;9.248;2023-12-20T05:39:57;96961.66;;;5.08;100.00
44131;BME280;29792;48.726;9.248;2023-12-20T05:42:22;96974.38;;;5.08;100.00
44131;BME280;29792;48.726;9.248;2023-12-20T05:44:48;96971.19;;;5.04;100.00
44131;BME280;29792;48.726;9.248;2023-12-20T05:47:13;96972.81;;;5.05;100.00
44131;BME280;29792;48.726;9.248;2023-12-20T05:49:38;96983.03;;;5.04;100.00
44131;BME280;29792;48.726;9.248;2023-12-20T05:52:03;96983.88;;;5.04;100.00
44131;BME280;29792;48.726;9.248;2023-12-20T05:54:29;96989.84;;;5.03;100.00
44131;BME280;29792;48.726;9.248;2023-12-20T05:56:54;96993.19;;;5.04;100.00
44131;BME280;29792;48.726;9.248;2023-12-20T05:59:20;96991.59;;;5.03;100.00
44131;BME280;29792;48.726;9.248;2023-12-20T06:01:45;97008.53;;;5.02;100.00
44131;BME280;29792;48.726;9.248;2023-12-20T06:04:10;97000.19;;;5.00;100.00
44131;BME280;29792;48.726;9.248;2023-12-20T06:06:43;97006.09;;;5.01;100.00
44131;BME280;29792;48.726;9.248;2023-12-20T06:09:09;97008.63;;;5.01;100.00
44131;BME280;29792;48.726;9.248;2023-12-20T06:11:34;97006.91;;;5.01;100.00
44131;BME280;29792;48.726;9.248;2023-12-20T06:14:00;97007.81;;;5.00;100.00
44131;BME280;29792;48.726;9.248;2023-12-20T06:16:25;97008.72;;;4.99;100.00
44131;BME280;29792;48.726;9.248;2023-12-20T06:18:50;97020.59;;;4.98;100.00
44131;BME280;29792;48.726;9.248;2023-12-20T06:21:16;97019.59;;;5.01;100.00
44131;BME280;29792;48.726;9.248;2023-12-20T06:23:41;97026.41;;;5.01;100.00
44131;BME280;29792;48.726;9.248;2023-12-20T06:26:06;97023.84;;;5.01;100.00
44131;BME280;29792;48.726;9.248;2023-12-20T06:28:31;97023.94;;;4.99;100.00
44131;BME280;29792;48.726;9.248;2023-12-20T06:30:57;97026.47;;;4.99;100.00
44131;BME280;29792;48.726;9.248;2023-12-20T06:33:22;97020.41;;;5.02;100.00
44131;BME280;29792;48.726;9.248;2023-12-20T06:35:48;97022.84;;;5.03;100.00
44131;BME280;29792;48.726;9.248;2023-12-20T06:38:14;97012.88;;;5.00;100.00
44131;BME280;29792;48.726;9.248;2023-12-20T06:40:39;97009.44;;;5.01;100.00
44131;BME280;29792;48.726;9.248;2023-12-20T06:43:04;97017.06;;;5.01;100.00
44131;BME280;29792;48.726;9.248;2023-12-20T06:45:31;97028.84;;;5.02;100.00
44131;BME280;29792;48.726;9.248;2023-12-20T06:47:57;97040.63;;;5.03;100.00
44131;BME280;29792;48.726;9.248;2023-12-20T06:50:22;97046.69;;;5.01;100.00
44131;BME280;29792;48.726;9.248;2023-12-20T06:52:47;97030.56;;;5.02;100.00
44131;BME280;29792;48.726;9.248;2023-12-20T06:55:12;97037.16;;;5.04;100.00
44131;BME280;29792;48.726;9.248;2023-12-20T06:57:38;97039.72;;;5.04;100.00
44131;BME280;29792;48.726;9.248;2023-12-20T07:00:04;97048.06;;;5.06;100.00
44131;BME280;29792;48.726;9.248;2023-12-20T07:02:29;97052.25;;;5.07;100.00
44131;BME280;29792;48.726;9.248;2023-12-20T07:04:55;97058.13;;;5.08;100.00
44131;BME280;29792;48.726;9.248;2023-12-20T07:07:21;97065.66;;;5.09;100.00
44131;BME280;29792;48.726;9.248;2023-12-20T07:09:48;97064.84;;;5.09;100.00
44131;BME280;29792;48.726;9.248;2023-12-20T07:12:13;97065.47;;;5.12;100.00
44131;BME280;29792;48.726;9.248;2023-12-20T07:14:38;97066.22;;;5.14;100.00
44131;BME280;29792;48.726;9.248;2023-12-20T07:17:04;97072.03;;;5.16;100.00
44131;BME280;29792;48.726;9.248;2023-12-20T07:19:29;97074.19;;;5.22;100.00
44131;BME280;29792;48.726;9.248;2023-12-20T07:21:54;97070.59;;;5.26;100.00
44131;BME280;29792;48.726;9.248;2023-12-20T07:24:19;97083.28;;;5.26;100.00
44131;BME280;29792;48.726;9.248;2023-12-20T07:26:45;97078.00;;;5.29;100.00
44131;BME280;29792;48.726;9.248;2023-12-20T07:29:10;97089.00;;;5.30;100.00
44131;BME280;29792;48.726;9.248;2023-12-20T07:31:35;97096.38;;;5.34;100.00
44131;BME280;29792;48.726;9.248;2023-12-20T07:34:00;97102.16;;;5.36;100.00
44131;BME280;29792;48.726;9.248;2023-12-20T07:36:26;97113.94;;;5.37;100.00
44131;BME280;29792;48.726;9.248;2023-12-20T07:38:51;97111.59;;;5.34;100.00
44131;BME280;29792;48.726;9.248;2023-12-20T07:41:16;97115.22;;;5.30;100.00
44131;BME280;29792;48.726;9.248;2023-12-20T07:43:42;97113.41;;;5.32;100.00
44131;BME280;29792;48.726;9.248;2023-12-20T07:46:08;97116.84;;;5.31;100.00
44131;BME280;29792;48.726;9.248;2023-12-20T07:48:35;97113.66;;;5.28;100.00
44131;BME280;29792;48.726;9.248;2023-12-20T07:51:00;97126.53;;;5.25;100.00
44131;BME280;29792;48.726;9.248;2023-12-20T07:53:25;97118.47;;;5.18;100.00
44131;BME280;29792;48.726;9.248;2023-12-20T07:55:51;97119.69;;;5.11;100.00
44131;BME280;29792;48.726;9.248;2023-12-20T07:58:17;97118.97;;;5.09;100.00
44131;BME280;29792;48.726;9.248;2023-12-20T08:00:43;97115.63;;;5.09;100.00
44131;BME280;29792;48.726;9.248;2023-12-20T08:03:09;97113.31;;;5.04;100.00
44131;BME280;29792;48.726;9.248;2023-12-20T08:05:34;97122.66;;;5.04;100.00
44131;BME280;29792;48.726;9.248;2023-12-20T08:07:59;97130.38;;;5.02;100.00
44131;BME280;29792;48.726;9.248;2023-12-20T08:10:24;97122.94;;;4.99;100.00
44131;BME280;29792;48.726;9.248;2023-12-20T08:12:50;97130.53;;;4.99;100.00
44131;BME280;29792;48.726;9.248;2023-12-20T08:15:15;97126.38;;;4.98;100.00
44131;BME280;29792;48.726;9.248;2023-12-20T08:17:41;97138.06;;;5.01;100.00
44131;BME280;29792;48.726;9.248;2023-12-20T08:20:07;97136.91;;;5.06;100.00
44131;BME280;29792;48.726;9.248;2023-12-20T08:22:32;97138.47;;;5.09;100.00
44131;BME280;29792;48.726;9.248;2023-12-20T08:24:58;97146.00;;;5.10;100.00
44131;BME280;29792;48.726;9.248;2023-12-20T08:27:23;97142.44;;;5.13;100.00
44131;BME280;29792;48.726;9.248;2023-12-20T08:29:48;97139.00;;;5.14;100.00
44131;BME280;29792;48.726;9.248;2023-12-20T08:32:15;97138.19;;;5.13;100.00
44131;BME280;29792;48.726;9.248;2023-12-20T08:34:40;97136.56;;;5.12;100.00
44131;BME280;29792;48.726;9.248;2023-12-20T08:37:05;97135.66;;;5.13;100.00
44131;BME280;29792;48.726;9.248;2023-12-20T08:39:30;97143.28;;;5.13;100.00
44131;BME280;29792;48.726;9.248;2023-12-20T08:41:58;97155.97;;;5.13;100.00
44131;BME280;29792;48.726;9.248;2023-12-20T08:44:23;97164.59;;;5.11;100.00
44131;BME280;29792;48.726;9.248;2023-12-20T08:46:49;97157.97;;;5.08;100.00
44131;BME280;29792;48.726;9.248;2023-12-20T08:49:14;97159.75;;;5.06;100.00
44131;BME280;29792;48.726;9.248;2023-12-20T08:51:39;97163.38;;;5.02;100.00
44131;BME280;29792;48.726;9.248;2023-12-20T08:54:06;97167.38;;;5.06;100.00
44131;BME280;29792;48.726;9.248;2023-12-20T08:56:33;97165.00;;;5.03;100.00
44131;BME280;29792;48.726;9.248;2023-12-20T08:58:58;97172.59;;;5.03;100.00
44131;BME280;29792;48.726;9.248;2023-12-20T09:01:24;97170.81;;;5.05;100.00
44131;BME280;29792;48.726;9.248;2023-12-20T09:03:50;97169.00;;;5.07;100.00
44131;BME280;29792;48.726;9.248;2023-12-20T09:06:15;97171.72;;;5.04;100.00
44131;BME280;29792;48.726;9.248;2023-12-20T09:08:41;97169.66;;;4.95;100.00
44131;BME280;29792;48.726;9.248;2023-12-20T09:11:06;97169.94;;;4.90;100.00
44131;BME280;29792;48.726;9.248;2023-12-20T09:13:32;97165.22;;;4.84;100.00
44131;BME280;29792;48.726;9.248;2023-12-20T09:15:57;97168.25;;;4.75;100.00
44131;BME280;29792;48.726;9.248;2023-12-20T09:18:23;97169.47;;;4.68;100.00
44131;BME280;29792;48.726;9.248;2023-12-20T09:20:48;97160.47;;;4.63;100.00
44131;BME280;29792;48.726;9.248;2023-12-20T09:23:14;97154.81;;;4.57;100.00
44131;BME280;29792;48.726;9.248;2023-12-20T09:25:39;97164.16;;;4.57;100.00
44131;BME280;29792;48.726;9.248;2023-12-20T09:28:05;97164.16;;;4.57;100.00
44131;BME280;29792;48.726;9.248;2023-12-20T09:30:30;97164.22;;;4.55;100.00
44131;BME280;29792;48.726;9.248;2023-12-20T09:32:55;97173.41;;;4.58;100.00
44131;BME280;29792;48.726;9.248;2023-12-20T09:35:21;97184.09;;;4.63;100.00
44131;BME280;29792;48.726;9.248;2023-12-20T09:37:46;97166.75;;;4.71;100.00
44131;BME280;29792;48.726;9.248;2023-12-20T09:40:13;97169.63;;;4.81;100.00
44131;BME280;29792;48.726;9.248;2023-12-20T09:42:48;97171.91;;;5.01;100.00
44131;BME280;29792;48.726;9.248;2023-12-20T09:45:20;97168.00;;;5.25;100.00
44131;BME280;29792;48.726;9.248;2023-12-20T09:47:45;97173.19;;;5.52;100.00
44131;BME280;29792;48.726;9.248;2023-12-20T09:50:12;97172.34;;;5.82;100.00
44131;BME280;29792;48.726;9.248;2023-12-20T09:52:38;97180.00;;;6.10;100.00
44131;BME280;29792;48.726;9.248;2023-12-20T09:55:04;97176.56;;;6.39;100.00
44131;BME280;29792;48.726;9.248;2023-12-20T09:57:32;97171.47;;;6.66;100.00
44131;BME280;29792;48.726;9.248;2023-12-20T09:59:57;97177.09;;;6.98;100.00
44131;BME280;29792;48.726;9.248;2023-12-20T10:02:25;97180.16;;;7.30;100.00
44131;BME280;29792;48.726;9.248;2023-12-20T10:04:54;97175.41;;;7.63;100.00
44131;BME280;29792;48.726;9.248;2023-12-20T10:07:20;97170.75;;;7.95;100.00
44131;BME280;29792;48.726;9.248;2023-12-20T10:09:47;97167.88;;;8.25;100.00
44131;BME280;29792;48.726;9.248;2023-12-20T10:12:13;97164.16;;;8.55;100.00
44131;BME280;29792;48.726;9.248;2023-12-20T10:14:41;97169.63;;;8.98;100.00
44131;BME280;29792;48.726;9.248;2023-12-20T10:17:06;97175.66;;;9.55;100.00
44131;BME280;29792;48.726;9.248;2023-12-20T10:19:32;97173.06;;;10.24;100.00
44131;BME280;29792;48.726;9.248;2023-12-20T10:21:59;97174.53;;;10.71;100.00
44131;BME280;29792;48.726;9.248;2023-12-20T10:24:24;97160.63;;;11.48;100.00
44131;BME280;29792;48.726;9.248;2023-12-20T10:27:03;97151.56;;;12.16;93.87
44131;BME280;29792;48.726;9.248;2023-12-20T10:29:38;97140.66;;;12.64;88.73
44131;BME280;29792;48.726;9.248;2023-12-20T10:34:47;97140.94;;;12.90;76.55
44131;BME280;29792;48.726;9.248;2023-12-20T10:37:12;97139.66;;;11.85;69.60
44131;BME280;29792;48.726;9.248;2023-12-20T10:39:38;97146.50;;;10.69;70.78
44131;BME280;29792;48.726;9.248;2023-12-20T10:42:04;97151.97;;;9.87;74.18
44131;BME280;29792;48.726;9.248;2023-12-20T10:44:30;97161.03;;;9.23;75.85
44131;BME280;29792;48.726;9.248;2023-12-20T10:46:56;97153.84;;;8.80;78.56
44131;BME280;29792;48.726;9.248;2023-12-20T10:49:24;97156.22;;;8.47;81.55
44131;BME280;29792;48.726;9.248;2023-12-20T10:51:53;97156.75;;;8.14;82.19
44131;BME280;29792;48.726;9.248;2023-12-20T10:54:19;97156.06;;;7.86;84.41
44131;BME280;29792;48.726;9.248;2023-12-20T10:56:44;97154.13;;;7.64;85.57
44131;BME280;29792;48.726;9.248;2023-12-20T10:59:11;97150.53;;;7.42;87.00
44131;BME280;29792;48.726;9.248;2023-12-20T11:01:38;97152.13;;;7.17;87.18
44131;BME280;29792;48.726;9.248;2023-12-20T11:04:08;97149.25;;;7.09;89.96
44131;BME280;29792;48.726;9.248;2023-12-20T11:07:03;97143.63;;;7.04;91.44
44131;BME280;29792;48.726;9.248;2023-12-20T11:09:36;97142.66;;;6.93;91.16
44131;BME280;29792;48.726;9.248;2023-12-20T11:12:13;97135.63;;;6.83;91.05
44131;BME280;29792;48.726;9.248;2023-12-20T11:14:46;97141.28;;;6.74;92.63
44131;BME280;29792;48.726;9.248;2023-12-20T11:17:12;97136.41;;;6.57;91.44
44131;BME280;29792;48.726;9.248;2023-12-20T11:22:31;97139.09;;;6.41;93.94
44131;BME280;29792;48.726;9.248;2023-12-20T11:27:30;97129.13;;;6.38;96.60
44131;BME280;29792;48.726;9.248;2023-12-20T11:29:57;97127.97;;;6.30;96.70
44131;BME280;29792;48.726;9.248;2023-12-20T11:34:55;97135.25;;;6.22;97.21
44131;BME280;29792;48.726;9.248;2023-12-20T11:37:21;97131.78;;;6.23;98.10
44131;BME280;29792;48.726;9.248;2023-12-20T11:39:55;97129.34;;;6.21;97.39
44131;BME280;29792;48.726;9.248;2023-12-20T11:42:21;97132.13;;;6.17;97.34
44131;BME280;29792;48.726;9.248;2023-12-20T11:44:47;97130.69;;;6.12;96.86
44131;BME280;29792;48.726;9.248;2023-12-20T11:47:13;97131.78;;;6.08;96.58
44131;BME280;29792;48.726;9.248;2023-12-20T11:49:39;97134.69;;;6.02;96.37
44131;BME280;29792;48.726;9.248;2023-12-20T11:52:04;97127.72;;;6.06;96.11
44131;BME280;29792;48.726;9.248;2023-12-20T11:54:30;97126.09;;;6.05;95.21
44131;BME280;29792;48.726;9.248;2023-12-20T11:56:55;97127.97;;;6.01;95.18
44131;BME280;29792;48.726;9.248;2023-12-20T11:59:21;97127.88;;;6.03;94.92
44131;BME280;29792;48.726;9.248;2023-12-20T12:01:52;97130.53;;;6.01;93.79
44131;BME280;29792;48.726;9.248;2023-12-20T12:04:17;97121.72;;;5.93;92.69
44131;BME280;29792;48.726;9.248;2023-12-20T12:06:44;97118.66;;;5.88;93.43
44131;BME280;29792;48.726;9.248;2023-12-20T12:09:10;97115.53;;;5.83;93.76
44131;BME280;29792;48.726;9.248;2023-12-20T12:11:35;97119.25;;;5.77;92.60
44131;BME280;29792;48.726;9.248;2023-12-20T12:14:01;97128.59;;;5.76;93.97
44131;BME280;29792;48.726;9.248;2023-12-20T12:16:26;97133.13;;;5.71;92.90
44131;BME280;29792;48.726;9.248;2023-12-20T12:18:58;97131.56;;;5.69;94.03
44131;BME280;29792;48.726;9.248;2023-12-20T12:21:24;97119.97;;;5.65;94.00
44131;BME280;29792;48.726;9.248;2023-12-20T12:23:49;97115.88;;;5.62;94.43
44131;BME280;29792;48.726;9.248;2023-12-20T12:26:15;97115.06;;;5.62;94.61
44131;BME280;29792;48.726;9.248;2023-12-20T12:28:40;97099.91;;;5.60;95.37
44131;BME280;29792;48.726;9.248;2023-12-20T12:31:13;97098.75;;;5.66;96.30
44131;BME280;29792;48.726;9.248;2023-12-20T12:33:40;97092.19;;;5.76;97.31
44131;BME280;29792;48.726;9.248;2023-12-20T12:36:07;97087.84;;;5.78;96.71
44131;BME280;29792;48.726;9.248;2023-12-20T12:38:33;97086.84;;;5.81;96.96
44131;BME280;29792;48.726;9.248;2023-12-20T12:40:59;97086.75;;;5.82;96.20
44131;BME280;29792;48.726;9.248;2023-12-20T12:43:25;97088.56;;;5.80;95.90
44131;BME280;29792;48.726;9.248;2023-12-20T12:45:50;97088.56;;;5.80;95.10
44131;BME280;29792;48.726;9.248;2023-12-20T12:48:15;97089.09;;;5.85;96.20
44131;BME280;29792;48.726;9.248;2023-12-20T12:50:41;97092.31;;;5.89;96.14
44131;BME280;29792;48.726;9.248;2023-12-20T12:53:06;97089.13;;;5.99;96.08
44131;BME280;29792;48.726;9.248;2023-12-20T12:55:31;97089.19;;;6.12;95.76
44131;BME280;29792;48.726;9.248;2023-12-20T12:57:56;97088.13;;;6.16;94.50
44131;BME280;29792;48.726;9.248;2023-12-20T13:00:22;97097.34;;;6.17;94.08
44131;BME280;29792;48.726;9.248;2023-12-20T13:02:47;97088.72;;;6.20;94.65
44131;BME280;29792;48.726;9.248;2023-12-20T13:05:13;97097.19;;;6.20;94.08